Time;durP1;ratioP1;P1;durP2;ratioP2;P2;SDS_P1;SDS_P2;PMS_P1;PMS_P2;Temp;Humidity;BMP_temperature;BMP_pressure;BME280_temperature;BME280_humidity;BME280_pressure;Samples;Min_cycle;Max_cycle;Signal;HPM_P1;HPM_P2
2022/02/28 00:01:58;;;;;;;14.77;10.40;;;2.50;99.90;;;;;;4988593;28;20129;-78
2022/02/28 00:04:25;;;;;;;14.40;10.33;;;2.40;99.90;;;;;;4990489;28;20065;-76
2022/02/28 00:06:54;;;;;;;16.30;10.07;;;2.40;99.90;;;;;;5008597;28;20483;-77
2022/02/28 00:09:20;;;;;;;14.50;11.00;;;2.40;99.90;;;;;;4995493;28;20050;-77
2022/02/28 00:11:46;;;;;;;14.07;10.60;;;2.40;99.90;;;;;;4987746;28;20513;-77
2022/02/28 00:14:12;;;;;;;14.00;9.73;;;2.40;99.90;;;;;;4956206;28;20109;-77
2022/02/28 00:16:39;;;;;;;14.17;10.53;;;2.30;99.90;;;;;;4972073;28;20412;-77
2022/02/28 00:19:08;;;;;;;16.70;11.07;;;2.30;99.90;;;;;;4995963;28;20078;-76
2022/02/28 00:21:34;;;;;;;14.20;10.47;;;2.30;99.90;;;;;;4988066;28;20056;-77
2022/02/28 00:24:00;;;;;;;14.77;10.80;;;2.30;99.90;;;;;;4972575;28;20046;-77
2022/02/28 00:26:26;;;;;;;15.17;11.47;;;2.30;99.90;;;;;;4987895;28;20058;-77
2022/02/28 00:28:52;;;;;;;15.47;11.37;;;2.20;99.90;;;;;;4972501;28;20382;-77
2022/02/28 00:31:18;;;;;;;17.57;11.67;;;2.20;99.90;;;;;;4971815;28;20050;-77
2022/02/28 00:33:44;;;;;;;17.40;11.47;;;2.30;99.90;;;;;;4971892;28;20117;-77
2022/02/28 00:36:10;;;;;;;16.83;11.37;;;2.20;99.90;;;;;;4988137;28;20145;-77
2022/02/28 00:38:36;;;;;;;14.40;10.90;;;2.10;99.90;;;;;;4956291;28;20053;-77
2022/02/28 00:41:02;;;;;;;14.67;11.43;;;2.10;99.90;;;;;;4987821;28;20611;-76
2022/02/28 00:43:28;;;;;;;14.20;11.00;;;2.10;99.90;;;;;;4987686;28;20743;-76
2022/02/28 00:45:53;;;;;;;16.03;11.40;;;2.10;99.90;;;;;;4971894;28;20049;-76
2022/02/28 00:48:19;;;;;;;16.53;12.00;;;2.10;99.90;;;;;;4975609;28;20045;-77
2022/02/28 00:50:45;;;;;;;15.87;11.93;;;2.10;99.90;;;;;;5007141;28;20057;-74
2022/02/28 01:03:56;;;;;;;18.70;12.23;;;2.10;99.90;;;;;;4988095;28;19920;-77
2022/02/28 01:06:22;;;;;;;14.07;12.07;;;2.00;99.90;;;;;;4987044;28;20373;-77
2022/02/28 01:08:48;;;;;;;16.00;11.57;;;2.10;99.90;;;;;;4988098;28;20502;-76
2022/02/28 01:11:14;;;;;;;16.37;12.20;;;2.00;99.90;;;;;;4987436;28;20652;-77
2022/02/28 01:13:39;;;;;;;15.80;12.03;;;2.10;99.90;;;;;;4970524;28;20535;-77
2022/02/28 01:16:05;;;;;;;16.17;11.37;;;2.00;99.90;;;;;;4987447;28;20117;-76
2022/02/28 01:18:31;;;;;;;16.07;12.33;;;2.00;99.90;;;;;;4986588;28;20477;-76
2022/02/28 01:20:57;;;;;;;15.07;12.37;;;2.00;99.90;;;;;;4974230;28;20049;-76
2022/02/28 01:23:23;;;;;;;15.30;11.77;;;2.10;99.90;;;;;;4974288;28;20053;-77
2022/02/28 01:25:48;;;;;;;19.30;12.10;;;2.00;99.90;;;;;;4973715;28;20080;-76
2022/02/28 01:28:14;;;;;;;17.47;12.07;;;1.90;99.90;;;;;;4958563;28;20104;-77
2022/02/28 01:30:40;;;;;;;14.63;11.70;;;1.90;99.90;;;;;;4979835;28;20065;-77
2022/02/28 01:33:06;;;;;;;16.10;11.77;;;1.90;99.90;;;;;;4954795;28;20479;-76
2022/02/28 01:35:35;;;;;;;16.30;11.83;;;1.80;99.90;;;;;;4982952;28;20048;-77
2022/02/28 01:38:00;;;;;;;15.70;11.60;;;1.90;99.90;;;;;;4985134;28;20433;-77
2022/02/28 01:40:27;;;;;;;16.13;11.37;;;1.90;99.90;;;;;;4990059;28;20046;-75
2022/02/28 01:42:53;;;;;;;15.97;11.83;;;1.80;99.90;;;;;;4990324;28;20148;-77
2022/02/28 01:45:24;;;;;;;18.10;12.00;;;1.80;99.90;;;;;;4986435;28;20604;-75
2022/02/28 01:47:55;;;;;;;14.63;11.43;;;1.80;99.90;;;;;;4985887;28;20382;-75
2022/02/28 01:50:21;;;;;;;16.17;11.40;;;1.80;99.90;;;;;;4986578;28;20062;-75
2022/02/28 01:52:48;;;;;;;15.67;11.97;;;1.80;99.90;;;;;;4970140;28;20042;-75
2022/02/28 01:55:16;;;;;;;15.57;12.03;;;1.70;99.90;;;;;;4971138;28;20052;-77
2022/02/28 01:57:43;;;;;;;15.73;12.07;;;1.80;99.90;;;;;;4970697;28;20101;-77
2022/02/28 02:00:14;;;;;;;15.47;11.40;;;1.70;99.90;;;;;;4990670;28;20492;-76
2022/02/28 02:02:41;;;;;;;16.10;12.30;;;1.70;99.90;;;;;;4994011;28;20530;-77
2022/02/28 02:05:08;;;;;;;17.90;11.87;;;1.70;99.90;;;;;;5005223;28;20038;-77
2022/02/28 02:07:34;;;;;;;14.90;12.07;;;1.70;99.90;;;;;;4999748;28;20112;-77
2022/02/28 02:10:03;;;;;;;17.30;11.67;;;1.70;99.90;;;;;;4969532;28;20515;-77
2022/02/28 02:12:30;;;;;;;14.87;11.53;;;1.60;99.90;;;;;;5002903;28;20075;-76
2022/02/28 02:14:59;;;;;;;14.90;11.50;;;1.60;99.90;;;;;;4988668;28;20697;-77
2022/02/28 02:17:25;;;;;;;16.80;12.27;;;1.70;99.90;;;;;;4992427;28;20496;-76
2022/02/28 02:19:53;;;;;;;14.27;11.87;;;1.60;99.90;;;;;;4985612;28;20109;-76
2022/02/28 02:22:20;;;;;;;14.47;11.67;;;1.60;99.90;;;;;;4985208;28;20497;-76
2022/02/28 02:24:46;;;;;;;15.10;11.13;;;1.60;99.90;;;;;;4969461;28;20068;-76
2022/02/28 02:27:12;;;;;;;14.90;12.27;;;1.60;99.90;;;;;;4969349;28;20042;-76
2022/02/28 02:29:40;;;;;;;16.40;12.83;;;1.60;99.90;;;;;;4951159;28;20057;-76
2022/02/28 02:32:10;;;;;;;16.47;12.07;;;1.60;99.90;;;;;;5005186;28;20049;-77
2022/02/28 02:34:36;;;;;;;15.97;12.90;;;1.60;99.90;;;;;;4998695;28;20088;-77
2022/02/28 02:37:03;;;;;;;16.23;12.20;;;1.50;99.90;;;;;;4970829;28;20082;-76
2022/02/28 02:39:28;;;;;;;16.23;12.47;;;1.50;99.90;;;;;;4967188;28;20050;-77
2022/02/28 02:41:54;;;;;;;15.67;12.77;;;1.50;99.90;;;;;;4985963;28;20069;-77
2022/02/28 02:44:20;;;;;;;15.67;11.73;;;1.50;99.90;;;;;;4985030;28;20369;-77
2022/02/28 02:46:47;;;;;;;16.57;11.93;;;1.50;99.90;;;;;;4984789;28;20137;-76
2022/02/28 02:49:15;;;;;;;14.47;11.80;;;1.40;99.90;;;;;;4968369;28;20058;-77
2022/02/28 02:51:42;;;;;;;16.33;12.57;;;1.50;99.90;;;;;;4983682;28;20053;-76
2022/02/28 02:54:08;;;;;;;16.43;12.40;;;1.40;99.90;;;;;;4975720;28;20089;-76
2022/02/28 02:56:36;;;;;;;14.53;11.67;;;1.50;99.90;;;;;;4992670;28;20050;-77
2022/02/28 02:59:03;;;;;;;17.53;12.93;;;1.50;99.90;;;;;;4992153;28;20132;-76
2022/02/28 03:01:29;;;;;;;14.80;11.77;;;1.40;99.90;;;;;;4988149;28;20077;-77
2022/02/28 03:03:58;;;;;;;17.97;12.37;;;1.40;99.90;;;;;;4971747;28;20050;-77
2022/02/28 03:06:24;;;;;;;14.07;11.60;;;1.40;99.90;;;;;;4989345;28;20042;-76
2022/02/28 03:08:50;;;;;;;15.57;11.73;;;1.30;99.90;;;;;;4981541;28;20073;-76
2022/02/28 03:11:16;;;;;;;15.87;12.10;;;1.40;99.90;;;;;;5007845;28;20074;-77
2022/02/28 03:13:43;;;;;;;16.57;12.13;;;1.30;99.90;;;;;;5007903;28;20073;-76
2022/02/28 03:16:08;;;;;;;15.37;12.23;;;1.30;99.90;;;;;;4991781;28;20049;-76
2022/02/28 03:18:34;;;;;;;17.13;12.20;;;1.30;99.90;;;;;;4989264;28;20416;-76
2022/02/28 03:21:00;;;;;;;16.33;12.70;;;1.30;99.90;;;;;;4988065;28;20113;-75
2022/02/28 03:23:26;;;;;;;15.33;12.37;;;1.30;99.90;;;;;;4960873;28;20583;-76
2022/02/28 03:25:53;;;;;;;15.57;12.33;;;1.20;99.90;;;;;;4975961;28;20038;-76
2022/02/28 03:28:19;;;;;;;14.67;12.57;;;1.20;99.90;;;;;;4995285;28;20081;-76
2022/02/28 03:30:45;;;;;;;16.20;12.33;;;1.20;99.90;;;;;;4987737;28;20082;-76
2022/02/28 03:33:11;;;;;;;15.57;12.27;;;1.20;99.90;;;;;;4990352;28;20590;-76
2022/02/28 03:35:37;;;;;;;15.73;12.00;;;1.10;99.90;;;;;;4973638;28;20061;-75
2022/02/28 03:38:03;;;;;;;17.70;13.07;;;1.10;99.90;;;;;;4974328;28;20419;-76
2022/02/28 03:40:29;;;;;;;15.57;13.00;;;1.10;99.90;;;;;;4989448;28;20108;-76
2022/02/28 03:42:57;;;;;;;15.47;12.33;;;1.10;99.90;;;;;;4989372;28;20560;-76
2022/02/28 03:45:24;;;;;;;15.13;12.90;;;1.10;99.90;;;;;;4973196;28;20311;-76
2022/02/28 03:47:49;;;;;;;14.80;12.20;;;1.00;99.90;;;;;;4990422;28;20057;-76
2022/02/28 03:50:15;;;;;;;15.90;13.60;;;1.00;99.90;;;;;;4989439;28;20099;-76
2022/02/28 03:52:41;;;;;;;15.90;13.40;;;1.00;99.90;;;;;;4989264;28;20128;-76
2022/02/28 03:55:08;;;;;;;16.50;13.87;;;1.00;99.90;;;;;;4972176;28;20053;-76
2022/02/28 03:57:34;;;;;;;17.27;12.87;;;1.00;99.90;;;;;;4988944;28;20505;-76
2022/02/28 04:00:00;;;;;;;16.47;12.90;;;1.00;99.90;;;;;;4988807;28;20057;-76
2022/02/28 04:02:28;;;;;;;18.53;12.73;;;1.00;99.90;;;;;;4988773;28;20147;-76
2022/02/28 04:04:54;;;;;;;17.27;13.10;;;0.90;99.90;;;;;;4959422;28;20137;-76
2022/02/28 04:07:20;;;;;;;17.17;13.37;;;0.90;99.90;;;;;;4990444;28;20184;-76
2022/02/28 04:09:46;;;;;;;15.80;12.50;;;0.90;99.90;;;;;;4972972;28;20057;-76
2022/02/28 04:12:12;;;;;;;13.97;12.43;;;0.90;99.90;;;;;;4987569;28;20054;-76
2022/02/28 04:14:38;;;;;;;16.43;13.47;;;0.90;99.90;;;;;;5007439;28;20093;-76
2022/02/28 04:17:07;;;;;;;17.17;13.13;;;0.80;99.90;;;;;;5008039;28;20088;-76
2022/02/28 04:19:33;;;;;;;15.30;12.57;;;0.80;99.90;;;;;;4993336;28;20137;-76
2022/02/28 04:21:58;;;;;;;16.30;13.03;;;0.80;99.90;;;;;;4989558;28;20125;-77
2022/02/28 04:24:24;;;;;;;17.73;13.83;;;0.70;99.90;;;;;;4991497;28;20545;-76
2022/02/28 04:26:50;;;;;;;14.87;13.30;;;0.70;99.90;;;;;;5000536;28;20468;-76
2022/02/28 04:29:16;;;;;;;19.13;12.97;;;0.70;99.90;;;;;;4987612;28;20089;-76
2022/02/28 04:31:42;;;;;;;17.77;13.73;;;0.70;99.90;;;;;;4955984;28;20050;-76
2022/02/28 04:34:08;;;;;;;20.20;13.83;;;0.70;99.90;;;;;;4987961;28;20512;-76
2022/02/28 04:36:34;;;;;;;17.57;13.10;;;0.60;99.90;;;;;;4988068;28;20084;-76
2022/02/28 04:39:00;;;;;;;17.97;13.57;;;0.60;99.90;;;;;;4988160;28;20066;-76
2022/02/28 04:41:26;;;;;;;17.60;13.70;;;0.60;99.90;;;;;;4987262;28;20125;-76
2022/02/28 04:43:52;;;;;;;17.93;13.43;;;0.50;99.90;;;;;;4972234;28;20082;-76
2022/02/28 04:46:18;;;;;;;16.37;13.30;;;0.60;99.90;;;;;;4987854;28;20042;-76
2022/02/28 04:48:45;;;;;;;16.10;12.87;;;0.50;99.90;;;;;;4986963;28;20053;-76
2022/02/28 04:51:11;;;;;;;17.70;13.77;;;0.50;99.90;;;;;;4987971;28;20043;-76
2022/02/28 04:53:36;;;;;;;19.37;14.20;;;0.40;99.90;;;;;;4972451;28;20141;-76
2022/02/28 04:56:03;;;;;;;17.17;13.63;;;0.40;99.90;;;;;;4955694;28;20054;-76
2022/02/28 04:58:29;;;;;;;16.77;14.10;;;0.40;99.90;;;;;;4988568;28;20141;-76
2022/02/28 05:00:55;;;;;;;20.20;14.50;;;0.40;99.90;;;;;;4992551;28;20059;-76
2022/02/28 05:03:23;;;;;;;16.07;13.70;;;0.40;99.90;;;;;;5007930;28;20046;-76
2022/02/28 05:05:49;;;;;;;17.97;14.37;;;0.30;99.90;;;;;;4990293;28;20053;-76
2022/02/28 05:08:15;;;;;;;17.73;13.43;;;0.40;99.90;;;;;;5003071;28;20042;-76
2022/02/28 05:10:41;;;;;;;17.37;13.70;;;0.30;99.90;;;;;;4972117;28;20069;-76
2022/02/28 05:13:07;;;;;;;19.60;14.57;;;0.30;99.90;;;;;;4954685;28;20112;-75
2022/02/28 05:15:33;;;;;;;15.67;13.43;;;0.30;99.90;;;;;;4967633;28;20103;-76
2022/02/28 05:17:58;;;;;;;16.23;14.50;;;0.30;99.90;;;;;;5004201;28;20143;-76
2022/02/28 05:20:24;;;;;;;16.53;14.23;;;0.30;99.90;;;;;;4976005;28;20042;-76
2022/02/28 05:22:50;;;;;;;19.30;14.27;;;0.40;99.90;;;;;;4974677;28;20060;-76
2022/02/28 05:25:16;;;;;;;17.67;13.80;;;0.30;99.90;;;;;;4958419;28;20085;-76
2022/02/28 05:27:47;;;;;;;17.83;14.90;;;0.40;99.90;;;;;;4990902;28;20508;-76
2022/02/28 05:30:16;;;;;;;21.97;15.50;;;0.40;99.90;;;;;;4990979;28;20140;-76
2022/02/28 05:32:43;;;;;;;17.83;14.07;;;0.30;99.90;;;;;;4990773;28;20153;-76
2022/02/28 05:35:13;;;;;;;19.07;15.30;;;0.30;99.90;;;;;;5006570;28;20128;-76
2022/02/28 05:37:39;;;;;;;16.52;14.80;;;0.30;99.90;;;;;;4990230;28;20061;-76
2022/02/28 05:40:07;;;;;;;18.27;15.63;;;0.30;99.90;;;;;;4990147;28;20049;-76
2022/02/28 05:42:34;;;;;;;20.17;15.50;;;0.30;99.90;;;;;;4990564;28;20050;-75
2022/02/28 05:45:00;;;;;;;17.77;14.87;;;0.30;99.90;;;;;;4990013;28;20137;-75
2022/02/28 05:47:29;;;;;;;18.57;15.47;;;0.40;99.90;;;;;;4990252;28;20076;-75
2022/02/28 05:49:54;;;;;;;18.57;15.77;;;0.30;99.90;;;;;;4997169;28;20050;-75
2022/02/28 05:52:20;;;;;;;18.53;15.57;;;0.30;99.90;;;;;;4991031;28;20046;-75
2022/02/28 05:54:46;;;;;;;18.53;15.67;;;0.30;99.90;;;;;;4989703;28;20602;-75
2022/02/28 05:57:12;;;;;;;20.40;16.10;;;0.30;99.90;;;;;;4984664;28;20041;-75
2022/02/28 05:59:38;;;;;;;18.83;16.07;;;0.20;99.90;;;;;;4971999;28;20058;-74
2022/02/28 06:02:04;;;;;;;21.50;16.30;;;0.30;99.90;;;;;;4966901;28;20681;-75
2022/02/28 06:04:29;;;;;;;17.67;15.87;;;0.40;99.90;;;;;;4975763;28;20078;-75
2022/02/28 06:06:55;;;;;;;19.13;16.23;;;0.30;99.90;;;;;;4969379;28;20129;-75
2022/02/28 06:09:21;;;;;;;17.40;15.60;;;0.30;99.90;;;;;;4972745;28;20086;-74
2022/02/28 06:11:49;;;;;;;18.40;15.27;;;0.40;99.90;;;;;;4990140;28;20063;-74
2022/02/28 06:14:15;;;;;;;19.97;15.93;;;0.40;99.90;;;;;;4973331;28;20049;-75
2022/02/28 06:16:41;;;;;;;17.67;14.67;;;0.30;99.90;;;;;;4970379;28;20046;-74
2022/02/28 06:19:07;;;;;;;19.40;15.23;;;0.20;99.90;;;;;;4970477;28;20053;-75
2022/02/28 06:21:33;;;;;;;19.23;16.50;;;0.20;99.90;;;;;;4984701;28;20046;-75
2022/02/28 06:23:59;;;;;;;19.27;15.87;;;0.20;99.90;;;;;;4997582;28;20069;-74
2022/02/28 06:26:25;;;;;;;61.50;40.67;;;0.20;99.90;;;;;;4990086;28;20043;-74
2022/02/28 06:28:51;;;;;;;21.07;17.97;;;0.20;99.90;;;;;;4981754;28;20465;-74
2022/02/28 06:31:17;;;;;;;22.40;16.30;;;0.20;99.90;;;;;;4990382;28;20112;-75
2022/02/28 06:33:43;;;;;;;22.30;17.23;;;0.20;99.90;;;;;;4990231;28;20393;-74
2022/02/28 06:36:09;;;;;;;19.27;16.67;;;0.20;99.90;;;;;;4960702;28;20493;-75
2022/02/28 06:38:34;;;;;;;19.07;16.70;;;0.10;99.90;;;;;;4975864;28;20045;-74
2022/02/28 06:41:00;;;;;;;20.70;16.37;;;0.20;99.90;;;;;;4987169;28;20072;-74
2022/02/28 06:43:26;;;;;;;21.13;17.53;;;0.20;99.90;;;;;;4985646;28;20074;-74
2022/02/28 06:45:54;;;;;;;19.67;15.50;;;0.30;99.90;;;;;;4967783;28;20468;-74
2022/02/28 06:48:20;;;;;;;19.40;15.67;;;0.40;99.90;;;;;;4989728;28;20054;-75
2022/02/28 06:50:47;;;;;;;19.57;16.77;;;0.40;99.90;;;;;;4977837;28;20646;-75
2022/02/28 06:53:18;;;;;;;19.30;16.13;;;0.50;99.90;;;;;;4990066;28;20404;-74
2022/02/28 06:55:49;;;;;;;17.67;15.77;;;0.70;99.90;;;;;;4964661;28;20675;-75
2022/02/28 06:58:21;;;;;;;19.03;16.10;;;0.70;99.90;;;;;;4991135;28;20043;-75
2022/02/28 07:00:48;;;;;;;18.33;16.43;;;0.80;99.90;;;;;;4970956;28;20388;-75
2022/02/28 07:03:14;;;;;;;18.73;15.33;;;0.90;99.90;;;;;;4974020;28;20064;-75
2022/02/28 07:05:40;;;;;;;17.23;15.17;;;0.90;99.90;;;;;;4989031;28;20455;-75
2022/02/28 07:08:09;;;;;;;19.30;14.63;;;0.90;99.90;;;;;;5001829;28;20108;-75
2022/02/28 07:10:36;;;;;;;17.43;15.43;;;1.00;99.90;;;;;;4999563;28;20046;-75
2022/02/28 07:13:02;;;;;;;19.97;15.37;;;0.90;99.90;;;;;;4984563;28;20119;-77
2022/02/28 07:15:27;;;;;;;19.50;16.07;;;1.00;99.90;;;;;;4995225;28;20508;-75
2022/02/28 07:17:54;;;;;;;20.13;14.93;;;1.10;99.90;;;;;;4994198;28;20050;-75
2022/02/28 07:20:20;;;;;;;18.97;15.80;;;1.00;99.90;;;;;;4999925;28;20595;-75
2022/02/28 07:22:46;;;;;;;17.20;14.73;;;1.20;99.90;;;;;;4978016;28;20130;-76
2022/02/28 07:25:12;;;;;;;15.97;14.33;;;1.30;99.90;;;;;;4985019;28;20037;-75
2022/02/28 07:27:38;;;;;;;17.30;15.50;;;1.30;99.90;;;;;;4988405;28;20463;-76
2022/02/28 07:30:04;;;;;;;17.00;14.23;;;1.40;99.90;;;;;;4967848;28;20048;-75
2022/02/28 07:32:30;;;;;;;17.67;14.73;;;1.40;99.90;;;;;;4979358;28;20037;-76
2022/02/28 07:34:58;;;;;;;16.90;15.03;;;1.50;99.90;;;;;;4973640;28;20046;-76
2022/02/28 07:37:24;;;;;;;16.80;15.00;;;1.50;99.90;;;;;;5005022;28;20124;-76
2022/02/28 07:39:50;;;;;;;18.13;14.33;;;1.70;99.90;;;;;;4978173;28;20182;-75
2022/02/28 07:42:18;;;;;;;15.13;13.60;;;1.60;99.90;;;;;;4981350;28;20144;-76
2022/02/28 07:44:44;;;;;;;16.40;14.50;;;1.70;99.90;;;;;;4978834;28;20130;-76
2022/02/28 07:47:10;;;;;;;31.20;16.53;;;1.80;99.90;;;;;;4971442;28;20125;-76
2022/02/28 07:49:38;;;;;;;19.70;13.80;;;1.80;99.90;;;;;;4971998;28;20396;-76
2022/02/28 07:52:04;;;;;;;21.63;14.13;;;1.90;99.90;;;;;;4973181;28;20489;-76
2022/02/28 07:54:30;;;;;;;18.33;14.63;;;1.90;99.90;;;;;;4989054;28;20070;-76
2022/02/28 07:56:59;;;;;;;18.03;15.00;;;1.90;99.90;;;;;;4983563;28;20108;-76
2022/02/28 07:59:24;;;;;;;15.63;13.93;;;1.90;99.90;;;;;;4986758;28;20677;-76
2022/02/28 08:01:50;;;;;;;17.13;14.23;;;2.00;99.90;;;;;;5002130;28;20041;-76
2022/02/28 08:04:16;;;;;;;16.60;14.83;;;2.10;99.90;;;;;;4999002;28;20060;-76
2022/02/28 08:06:42;;;;;;;15.13;13.03;;;2.20;99.90;;;;;;4989593;28;20072;-76
2022/02/28 08:09:08;;;;;;;18.27;14.10;;;2.30;99.90;;;;;;4980269;28;20045;-77
2022/02/28 08:11:35;;;;;;;15.17;13.57;;;2.40;99.90;;;;;;4972392;28;20500;-74
2022/02/28 08:14:02;;;;;;;18.73;14.43;;;2.50;99.90;;;;;;5003778;28;20428;-75
2022/02/28 08:16:28;;;;;;;18.20;14.47;;;2.70;99.90;;;;;;4978035;28;20050;-76
2022/02/28 08:18:53;;;;;;;17.30;13.03;;;2.80;99.90;;;;;;4977648;28;20109;-75
2022/02/28 08:21:19;;;;;;;17.17;13.93;;;3.00;99.90;;;;;;4998060;28;20030;-77
2022/02/28 08:23:45;;;;;;;14.93;13.37;;;3.20;99.90;;;;;;4994402;28;20340;-77
2022/02/28 08:26:11;;;;;;;14.43;12.57;;;3.40;99.90;;;;;;4986591;28;20038;-76
2022/02/28 08:28:37;;;;;;;15.83;12.73;;;3.60;99.90;;;;;;4992775;28;20038;-77
2022/02/28 08:31:03;;;;;;;14.43;12.03;;;3.80;99.90;;;;;;4989330;28;20052;-77
2022/02/28 08:33:30;;;;;;;15.93;13.33;;;3.90;99.90;;;;;;4987758;28;20046;-77
2022/02/28 08:35:58;;;;;;;15.47;12.60;;;4.10;99.90;;;;;;4986526;28;20053;-77
2022/02/28 08:38:24;;;;;;;14.87;13.17;;;4.10;99.90;;;;;;4976207;28;20081;-77
2022/02/28 08:40:50;;;;;;;15.00;12.90;;;4.30;99.90;;;;;;4969623;28;20082;-77
2022/02/28 08:43:16;;;;;;;13.63;11.70;;;4.40;99.90;;;;;;5009731;28;20049;-74
2022/02/28 08:45:42;;;;;;;14.73;12.50;;;4.60;99.90;;;;;;4969888;28;20534;-74
2022/02/28 08:48:08;;;;;;;15.47;12.30;;;4.70;99.90;;;;;;4972117;28;20133;-76
2022/02/28 08:50:34;;;;;;;14.83;12.20;;;4.80;99.90;;;;;;4974260;28;20354;-77
2022/02/28 08:53:00;;;;;;;15.13;12.17;;;4.80;99.90;;;;;;4995242;28;20428;-77
2022/02/28 08:55:26;;;;;;;15.20;11.37;;;4.90;99.90;;;;;;4963224;28;20038;-77
2022/02/28 08:57:51;;;;;;;15.63;11.97;;;5.00;99.90;;;;;;4998476;28;20077;-77
2022/02/28 09:00:17;;;;;;;14.60;10.77;;;5.10;99.90;;;;;;4957617;28;20050;-77
2022/02/28 09:02:43;;;;;;;12.82;11.00;;;5.20;99.90;;;;;;4991762;28;20126;-77
2022/02/28 09:05:09;;;;;;;12.00;10.60;;;5.30;99.90;;;;;;4970987;28;20038;-77
2022/02/28 09:07:35;;;;;;;14.75;10.95;;;5.40;99.90;;;;;;5012970;28;20042;-77
2022/02/28 09:10:03;;;;;;;13.57;10.63;;;5.50;99.90;;;;;;4974322;28;20061;-74
2022/02/28 09:12:28;;;;;;;13.63;10.60;;;5.60;99.90;;;;;;4962714;28;20061;-74
2022/02/28 09:14:58;;;;;;;12.55;10.45;;;5.60;99.90;;;;;;4987788;28;20411;-74
2022/02/28 09:17:25;;;;;;;13.55;10.60;;;5.50;99.90;;;;;;4988994;28;20124;-74
2022/02/28 09:19:51;;;;;;;14.70;11.23;;;5.50;99.90;;;;;;5007334;28;20058;-77
2022/02/28 09:22:18;;;;;;;13.07;10.20;;;5.60;99.90;;;;;;4986422;28;20045;-76
2022/02/28 09:24:45;;;;;;;13.90;11.57;;;5.60;99.90;;;;;;4991251;28;20049;-76
2022/02/28 09:27:14;;;;;;;14.73;10.90;;;5.60;99.90;;;;;;4957746;28;20122;-76
2022/02/28 09:29:40;;;;;;;13.75;11.10;;;5.70;99.90;;;;;;4966907;28;20172;-76
2022/02/28 09:32:06;;;;;;;14.00;11.07;;;5.70;99.90;;;;;;4982369;28;20467;-77
2022/02/28 09:34:32;;;;;;;13.00;11.02;;;5.70;99.90;;;;;;4997048;28;20045;-76
2022/02/28 09:36:59;;;;;;;14.65;11.07;;;5.80;99.90;;;;;;5004189;28;20181;-77
2022/02/28 09:39:26;;;;;;;12.00;10.63;;;5.80;99.90;;;;;;4976478;28;20046;-76
2022/02/28 09:41:53;;;;;;;12.38;9.93;;;5.90;99.90;;;;;;4996261;28;20489;-77
2022/02/28 09:44:21;;;;;;;13.30;10.70;;;5.90;99.90;;;;;;4985597;28;20042;-77
2022/02/28 09:46:48;;;;;;;13.93;11.25;;;6.00;99.90;;;;;;4975831;28;20045;-77
2022/02/28 09:49:14;;;;;;;14.55;10.65;;;6.10;99.90;;;;;;4994281;28;20310;-77
2022/02/28 09:51:40;;;;;;;13.55;10.57;;;6.10;99.90;;;;;;4984240;28;20042;-77
2022/02/28 09:54:06;;;;;;;12.18;10.55;;;6.10;99.90;;;;;;4970908;28;20526;-77
2022/02/28 09:56:33;;;;;;;12.30;10.43;;;6.20;99.90;;;;;;4974426;28;20093;-77
2022/02/28 09:59:00;;;;;;;13.80;10.65;;;6.30;99.90;;;;;;4969593;28;20424;-77
2022/02/28 10:01:29;;;;;;;12.43;10.52;;;6.30;99.90;;;;;;4988307;28;20100;-77
2022/02/28 10:03:58;;;;;;;15.63;10.23;;;6.50;99.90;;;;;;4978685;28;20124;-77
2022/02/28 10:06:24;;;;;;;14.45;10.32;;;6.50;99.30;;;;;;4973581;28;20366;-77
2022/02/28 10:08:53;;;;;;;12.48;10.00;;;6.50;99.10;;;;;;4975237;28;20046;-76
2022/02/28 10:11:35;;;;;;;13.52;10.38;;;6.60;98.90;;;;;;4993219;28;20040;-76
2022/02/28 10:14:04;;;;;;;13.27;10.55;;;6.60;99.20;;;;;;4978328;28;20524;-76
2022/02/28 10:16:31;;;;;;;12.35;10.50;;;6.70;99.30;;;;;;4953625;28;20047;-76
2022/02/28 10:18:57;;;;;;;10.77;9.38;;;6.70;99.00;;;;;;4950282;28;20549;-76
2022/02/28 10:21:35;;;;;;;12.30;10.32;;;6.80;98.90;;;;;;4966778;28;20054;-76
2022/02/28 10:24:01;;;;;;;13.20;10.32;;;6.90;98.20;;;;;;4953658;28;20525;-75
2022/02/28 10:26:27;;;;;;;11.98;9.60;;;7.00;97.40;;;;;;4951421;28;20091;-76
2022/02/28 10:29:09;;;;;;;13.77;10.27;;;7.00;97.50;;;;;;4969681;28;20046;-77
2022/02/28 10:31:41;;;;;;;12.07;9.85;;;7.10;97.20;;;;;;4952428;28;20039;-76
2022/02/28 10:34:14;;;;;;;14.57;10.13;;;7.20;97.30;;;;;;4969439;28;20046;-77
2022/02/28 10:36:44;;;;;;;13.35;9.77;;;7.20;96.50;;;;;;4964836;28;20057;-77
2022/02/28 10:39:10;;;;;;;11.00;9.50;;;7.30;95.90;;;;;;4966447;28;20042;-76
2022/02/28 10:41:39;;;;;;;11.38;9.27;;;7.20;95.70;;;;;;4966825;28;20125;-77
2022/02/28 10:44:10;;;;;;;15.25;9.80;;;7.30;95.10;;;;;;4969432;28;20042;-77
2022/02/28 10:46:42;;;;;;;;;;;7.30;96.00;;;;;;4970327;28;20374;-76
2022/02/28 10:49:27;;;;;;;13.00;10.43;;;7.40;95.90;;;;;;4975979;28;20064;-77
2022/02/28 10:51:55;;;;;;;12.85;9.63;;;7.50;94.50;;;;;;4968902;28;20051;-77
2022/02/28 10:54:27;;;;;;;13.25;10.52;;;7.50;93.90;;;;;;4969277;28;20532;-77
2022/02/28 10:57:05;;;;;;;11.10;9.38;;;7.50;94.30;;;;;;4965431;28;20042;-77
2022/02/28 10:59:39;;;;;;;12.68;9.98;;;7.60;93.70;;;;;;4962013;28;20146;-77
2022/02/28 11:02:06;;;;;;;13.55;10.02;;;7.60;92.90;;;;;;4938065;28;20051;-77
2022/02/28 11:04:35;;;;;;;11.52;10.15;;;7.60;93.60;;;;;;4933568;28;20078;-78
2022/02/28 11:07:01;;;;;;;12.13;9.55;;;7.70;94.10;;;;;;4962124;28;20453;-78
2022/02/28 11:09:42;;;;;;;12.73;9.65;;;7.80;93.20;;;;;;4944135;28;20486;-78
2022/02/28 11:12:29;;;;;;;12.55;9.95;;;7.80;93.60;;;;;;4978955;28;20496;-78
2022/02/28 11:15:00;;;;;;;11.90;10.38;;;7.90;93.60;;;;;;4979906;28;20058;-78
2022/02/28 11:17:29;;;;;;;12.60;9.85;;;8.00;91.40;;;;;;4977581;28;20050;-78
2022/02/28 11:19:59;;;;;;;12.93;9.98;;;8.00;91.50;;;;;;4984452;28;20077;-78
2022/02/28 11:22:27;;;;;;;12.88;10.02;;;8.00;91.40;;;;;;4998311;28;20401;-78
2022/02/28 11:24:54;;;;;;;11.68;10.32;;;8.00;92.10;;;;;;4967596;28;20129;-78
2022/02/28 11:27:22;;;;;;;11.50;10.30;;;8.10;91.80;;;;;;4987923;28;20042;-78
2022/02/28 11:30:21;;;;;;;12.30;10.10;;;8.10;91.80;;;;;;4990006;28;20575;-77
2022/02/28 11:32:54;;;;;;;14.15;9.95;;;8.10;90.80;;;;;;4975754;28;20064;-78
2022/02/28 11:35:53;;;;;;;12.45;10.57;;;8.10;91.40;;;;;;5003101;28;20058;-78
2022/02/28 11:38:19;;;;;;;14.48;10.68;;;8.20;92.20;;;;;;5001496;28;20141;-78
2022/02/28 11:40:48;;;;;;;12.00;10.15;;;8.20;92.30;;;;;;4978412;28;20133;-78
2022/02/28 11:43:22;;;;;;;11.90;9.52;;;8.30;92.60;;;;;;4980970;28;20504;-78
2022/02/28 11:45:56;;;;;;;15.10;10.43;;;8.30;91.80;;;;;;4986422;28;20124;-77
2022/02/28 11:48:34;;;;;;;12.05;10.65;;;8.40;91.20;;;;;;4989217;28;20061;-78
2022/02/28 11:51:07;;;;;;;13.90;11.30;;;8.40;91.20;;;;;;5004651;28;20046;-77
2022/02/28 11:53:49;;;;;;;12.00;9.73;;;8.40;91.20;;;;;;4993498;28;20034;-78
2022/02/28 11:56:19;;;;;;;14.65;10.65;;;8.40;90.00;;;;;;4970374;28;20493;-78
2022/02/28 11:59:09;;;;;;;12.50;10.25;;;8.40;90.40;;;;;;4991580;28;20112;-75
2022/02/28 12:01:36;;;;;;;14.45;9.88;;;8.50;90.40;;;;;;4990214;28;20120;-75
2022/02/28 12:04:15;;;;;;;16.20;10.43;;;8.60;90.10;;;;;;4999546;28;20069;-75
2022/02/28 12:06:53;;;;;;;12.05;9.90;;;8.70;90.10;;;;;;4999174;28;20049;-75
2022/02/28 12:09:37;;;;;;;13.00;10.40;;;8.80;87.30;;;;;;4973624;28;20143;-75
2022/02/28 12:12:48;;;;;;;15.13;11.35;;;8.90;87.30;;;;;;4990774;28;20069;-74
2022/02/28 12:15:17;;;;;;;12.70;10.70;;;9.00;84.00;;;;;;4975286;28;20089;-78
2022/02/28 12:17:52;;;;;;;11.77;10.40;;;8.90;84.20;;;;;;4988689;28;20396;-78
2022/02/28 12:20:21;;;;;;;12.48;10.43;;;9.00;86.00;;;;;;4986107;28;20046;-78
2022/02/28 12:22:58;;;;;;;14.48;10.70;;;9.10;86.10;;;;;;4997312;28;20056;-78
2022/02/28 12:25:34;;;;;;;11.50;9.77;;;9.20;85.30;;;;;;4997817;28;20132;-78
2022/02/28 12:28:22;;;;;;;14.38;9.68;;;9.30;84.30;;;;;;4976045;28;20849;-78
2022/02/28 12:30:58;;;;;;;11.77;10.00;;;9.40;83.10;;;;;;4974449;28;20054;-78
2022/02/28 12:33:34;;;;;;;10.30;9.15;;;9.50;83.40;;;;;;4970640;28;20358;-78
2022/02/28 12:36:29;;;;;;;12.15;9.93;;;9.60;81.60;;;;;;4978375;28;20159;-78
2022/02/28 12:38:56;;;;;;;12.18;9.35;;;9.60;82.60;;;;;;4972765;28;20488;-79
2022/02/28 12:41:29;;;;;;;13.52;10.77;;;9.70;82.40;;;;;;4990914;28;20039;-78
2022/02/28 12:43:59;;;;;;;10.90;9.75;;;9.70;82.60;;;;;;4974750;28;20045;-78
2022/02/28 12:46:44;;;;;;;11.15;9.95;;;9.80;81.40;;;;;;4989932;28;20360;-78
2022/02/28 12:49:13;;;;;;;12.50;9.38;;;9.80;80.80;;;;;;4988009;28;20042;-78
2022/02/28 12:51:40;;;;;;;11.25;10.00;;;9.90;81.20;;;;;;4992102;28;20105;-78
2022/02/28 12:54:21;;;;;;;11.23;9.27;;;10.00;78.50;;;;;;4988816;28;20523;-78